Pagrindinis puslapis
METAR-TAF:

METAR-TAF

Oro uostai :

Majamis, Florida, Jungtinės Amerikos Valstijos

platuma: 25-47-26N, ilguma: 080-18-59W, Aukštis: 3 m

Dabartinis oras

Ataskaita buvo paskelbta 18 minutes, ne 06:53 UTC
Vėjas 3 kt iš Vakarų
Temperatūra 18°C
Drėgmė 77%
Slėgis 1020 hPa
Matomumas: 16.1 km
Mažai debesys ne aukštis 4000 ft
Išsisklaidę debesys ne aukštis 25000 ft

METAR: KMIA 070653Z 27003KT 10SM FEW040 SCT250 18/14 A3013 RMK AO2 SLP201 T01780139

Laikas: 02:11 (07:11 UTC)

Prognozė

Ataskaita buvo paskelbta 1 valandą ir 41 minutes, ne 05:30 UTC
Prognozė galioja nuo 07 metu 06 UTC su 08 metu 12 UTC
Vėjas 3 kt nuo kintamojo kryptimis
Matomumas: 10 km
Mažai debesys ne aukštis 4500 ft
Išsisklaidę debesys ne aukštis 25000 ft
Nuo 07 metu 1600 UTC
Vėjas 6 kt iš Rytų
Matomumas: 10 km
Išsisklaidę debesys ne aukštis 25000 ft
Nuo 08 metu 0000 UTC
Vėjas 3 kt nuo kintamojo kryptimis
Matomumas: 10 km
Giedras dangus

TAF: KMIA 070530Z 0706/0812 VRB03KT P6SM FEW045 SCT250 FM071600 08006KT P6SM SCT250 FM080000 VRB03KT P6SM SKC

Orai ataskaitas ir orų prognozės (METAR, TAF).

turimą stotys yra geltonos ir raudonos taškus žemėlapyje.

Perkelti pele per norėdami pamatyti stoties vardą.

Tada spustelėkite, norėdami matyti oro stebėjimo ir prognozės.

Norėdami pakeisti žemėlapį: spustelėkite ant žalios mygtukų su juodo kryžiaus žemyn,; žalią mygtuką su brūkšneliu, jei norite nutolinti; arba žalių rodyklių gretimoms žemėlapius.


METAR-TAF: